Buchanan, New York
Current Conditions -  °F | °C
As of 4:56 PM on Wednesday 22 Oct 2014 (Local Time) from KHPN Reporting Station
Moderate Rain Moderate Rain  
Wind Chill: 53°   Ceiling: 2500
Heat Index: 53°   Visibility: 2.5mi
Dew Point: 47°   Wind: 20mph
Humidity: 80%   Direction: 350°N
Pressure: 29.82"   Gusts: 26mph
Location:  41.26°N, 73.94°W
Report Text: KHPN 222056Z 35017G23KT 2 1/2SM RA BR FEW019 BKN025 OVC035 12/08 A2982 RMK AO2 PK WND 01027/2023 DZB44E51RAB51 SLP097 P0000 60000 T01170083 58019
Loading
Personal Weather Stations






























Interactive Weather Map
Tropical Storm Tracking
New forecast layout! Learn more

10-Day Weather Forecast

Advertisements
Track Severe Weather on mobile